Latest Coastal Weather Observations for Hervey Bay

IDQ60701

Issued at 12:52 pm EST Wednesday 26 July 2017 (issued every 10 minutes, with the page automatically refreshed every 10 minutes)

About coastal observations | Map of coastal stations | Coastal observations for QLD | Marine services | Other Formats
Station Details ID: 040405 Name: HERVEY BAY AIRPORT Lat: -25.32 Lon: 152.88 Height: 12.98 m
Data from the previous 72 hours. | See also: Recent months at Hervey Bay
Date/Time
EST
Temp
°C
Wind Pressure Rain since
9am
mm
Weather Cloud Vis
km
Sea
Height
m
Swell
Dir  Spd
kts
Gust
kts
hPa Trend Height
m
Period
s
Dir
26/12:30pm 23.1 NNW 10 13 1021.1 - 0.0 - - 10 - - - -
26/12:00pm 22.6 N 7 10 1021.8 - 0.0 - - 10 - - - -
26/11:30am 23.8 NW 5 10 1022.4 - 0.0 - - 10 - - - -
26/11:00am 21.9 W 4 6 1022.9 - 0.0 - - 10 - - - -
26/10:30am 20.9 WSW 5 7 1023.3 - 0.0 - - 10 - - - -
26/10:00am 19.6 SW 4 6 1023.5 - 0.0 - - 10 - - - -
26/09:30am 18.0 SSW 4 6 1023.6 - 0.0 - - 10 - - - -
26/08:30am 13.5 SSW 6 7 1023.6 - 0.0 - - 10 - - - -
26/08:00am 11.3 SSW 4 6 1023.4 - 0.0 - - 10 - - - -
26/07:30am 8.9 SSW 1 4 1023.2 - 0.0 - - 10 - - - -
26/07:00am 6.3 CALM 0 0 1023.0 - 0.0 - - 10 - - - -
26/06:30am 5.4 CALM 0 0 1022.8 - 0.0 - - 10 - - - -
26/06:00am 5.9 CALM 0 0 1022.4 - 0.0 - - 10 - - - -
26/05:30am 6.9 CALM 0 0 1022.1 - 0.0 - - 10 - - - -
26/05:00am 6.8 SW 4 5 1022.0 - 0.0 - - 10 - - - -
26/04:30am 6.3 SSW 3 5 1022.0 - 0.0 - - 10 - - - -
26/04:00am 5.9 SSW 3 4 1022.0 - 0.0 - - 10 - - - -
26/03:30am 5.3 CALM 0 0 1022.1 - 0.0 - - 10 - - - -
26/03:00am 5.7 CALM 0 0 1022.1 - 0.0 - - 10 - - - -
26/02:30am 5.9 CALM 0 0 1022.2 - 0.0 - - 10 - - - -
26/02:00am 6.0 CALM 0 0 1022.3 - 0.0 - - 10 - - - -
26/01:30am 6.2 CALM 0 0 1022.4 - 0.0 - - 10 - - - -
26/01:00am 6.7 CALM 0 0 1022.7 - 0.0 - - 10 - - - -
26/12:30am 7.8 SW 3 4 1022.8 - 0.0 - - 10 - - - -
26/12:00am 8.1 SW 3 4 1022.9 - 0.0 - - 10 - - - -
 
Date/Time
EST
Temp
°C
Wind Pressure Rain since
9am
mm
Weather Cloud Vis
km
Sea
Height
m
Swell
Dir  Spd
kts
Gust
kts
hPa Trend Height
m
Period
s
Dir
25/11:30pm 7.3 SSW 4 4 1023.0 - 0.0 - - 10 - - - -
25/11:00pm 7.6 SSW 4 5 1023.0 - 0.0 - - 10 - - - -
25/10:30pm 7.2 SW 1 5 1022.9 - 0.0 - - 10 - - - -
25/10:00pm 7.4 CALM 0 0 1022.6 - 0.0 - - 10 - - - -
25/09:30pm 8.2 CALM 0 0 1022.4 - 0.0 - - 10 - - - -
25/09:00pm 8.0 CALM 0 0 1022.3 - 0.0 - - 10 - - - -
25/08:30pm 8.5 CALM 0 0 1022.2 - 0.0 - - 10 - - - -
25/08:00pm 8.9 CALM 0 0 1022.1 - 0.0 - - 10 - - - -
25/07:30pm 9.6 CALM 0 0 1021.9 - 0.0 - - 10 - - - -
25/07:00pm 10.5 CALM 0 0 1021.8 - 0.0 - - 10 - - - -
25/06:30pm 11.8 CALM 0 0 1021.7 - 0.0 - - 10 - - - -
25/06:00pm 14.3 ENE 5 6 1021.4 - 0.0 - - 10 - - - -
25/05:30pm 17.3 E 5 6 1021.1 - 0.0 - - 10 - - - -
25/05:00pm 20.3 ENE 6 7 1020.9 - 0.0 - - 10 - - - -
25/04:30pm 21.6 E 8 11 1020.5 - 0.0 - - 10 - - - -
25/04:00pm 22.5 ESE 9 11 1020.4 - 0.0 - - 10 - - - -
25/03:30pm 23.2 ESE 9 11 1020.4 - 0.0 - - 10 - - - -
25/03:00pm 23.6 ESE 10 12 1020.4 - 0.0 - - 10 - - - -
25/02:30pm 23.8 ESE 8 12 1020.6 - 0.0 - - 10 - - - -
25/02:00pm 24.0 ESE 9 11 1020.8 - 0.0 - - 10 - - - -
25/01:30pm 23.9 ESE 8 17 1021.0 - 0.0 - - 10 - - - -
25/01:00pm 23.6 SSE 6 9 1021.4 - 0.0 - - 10 - - - -
25/12:30pm 23.2 S 5 9 1021.9 - 0.0 - - 10 - - - -
25/12:00pm 23.4 SSE 6 10 1022.5 - 0.0 - - 10 - - - -
25/11:30am 22.8 SSW 7 10 1023.1 - 0.0 - - 10 - - - -
25/11:00am 22.0 SSW 6 9 1023.7 - 0.0 - - 10 - - - -
25/10:30am 21.5 SW 5 9 1024.0 - 0.0 - - 10 - - - -
25/10:00am 20.2 SSW 5 7 1024.4 - 0.0 - - 10 - - - -
25/09:30am 18.1 SW 5 7 1024.4 - 0.0 - - 10 - - - -
25/09:00am 16.3 SW 5 7 1024.4 - 0.0 - - 10 - - - -
25/08:30am 14.3 SSW 5 6 1024.2 - 0.0 - - 10 - - - -
25/08:00am 12.4 SSW 3 5 1023.9 - 0.0 - - 10 - - - -
25/07:30am 9.8 SW 3 5 1023.7 - 0.0 - - 10 - - - -
25/07:00am 7.7 CALM 0 0 1023.4 - 0.0 - - 10 - - - -
25/06:30am 5.2 SW 3 6 1023.1 - 0.0 - - 10 - - - -
25/06:00am 5.4 WSW 1 4 1022.8 - 0.0 - - 10 - - - -
25/05:30am 5.2 CALM 0 0 1022.4 - 0.0 - - 10 - - - -
25/05:00am 5.3 CALM 0 0 1022.1 - 0.0 - - 10 - - - -
25/04:30am 5.6 CALM 0 0 1021.8 - 0.0 - - 10 - - - -
25/04:00am 5.9 SSW 3 4 1021.7 - 0.0 - - 10 - - - -
25/03:30am 5.7 SW 1 4 1021.7 - 0.0 - - 10 - - - -
25/03:00am 5.7 SW 5 5 1021.6 - 0.0 - - 10 - - - -
25/02:30am 6.1 SSW 4 5 1021.7 - 0.0 - - 10 - - - -
25/02:00am 5.8 SW 1 5 1021.7 - 0.0 - - 10 - - - -
25/01:30am 5.9 CALM 0 0 1021.6 - 0.0 - - 10 - - - -
25/01:00am 6.5 SSW 1 3 1021.5 - 0.0 - - 10 - - - -
25/12:30am 6.6 SSW 3 4 1021.7 - 0.0 - - 10 - - - -
25/12:00am 6.4 SW 1 5 1021.7 - 0.0 - - 10 - - - -
 
Date/Time
EST
Temp
°C
Wind Pressure Rain since
9am
mm
Weather Cloud Vis
km
Sea
Height
m
Swell
Dir  Spd
kts
Gust
kts
hPa Trend Height
m
Period
s
Dir
24/11:30pm 6.7 CALM 0 0 1021.6 - 0.0 - - 10 - - - -
24/11:00pm 6.7 CALM 0 0 1021.7 - 0.0 - - 10 - - - -
24/10:30pm 7.1 CALM 0 0 1021.7 - 0.0 - - 10 - - - -
24/10:00pm 7.2 CALM 0 0 1021.6 - 0.0 - - 10 - - - -
24/09:30pm 7.8 CALM 0 0 1021.4 - 0.0 - - 10 - - - -
24/09:00pm 7.9 CALM 0 0 1021.3 - 0.0 - - 10 - - - -
24/08:30pm 8.8 CALM 0 0 1021.3 - 0.0 - - 10 - - - -
24/08:00pm 9.2 CALM 0 0 1021.1 - 0.0 - - 10 - - - -
24/07:30pm 9.7 CALM 0 0 1020.9 - 0.0 - - 10 - - - -
24/07:00pm 10.6 CALM 0 0 1020.7 - 0.0 - - 10 - - - -
24/06:30pm 11.9 ESE 2 4 1020.4 - 0.0 - - 10 - - - -
24/06:00pm 15.0 E 4 5 1020.1 - 0.0 - - 10 - - - -
24/05:30pm 17.3 ESE 6 7 1019.8 - 0.0 - - 10 - - - -
24/05:00pm 20.3 E 5 6 1019.5 - 0.0 - - 10 - - - -
24/04:30pm 21.8 ESE 5 7 1019.3 - 0.0 - - 10 - - - -
24/04:00pm 23.5 SSE 6 9 1019.0 - 0.0 - - 10 - - - -
24/03:30pm 23.9 SSE 5 9 1018.9 - 0.0 - - 10 - - - -
24/03:00pm 23.0 E 5 7 1019.0 - 0.0 - - 10 - - - -
24/02:30pm 22.8 ENE 5 7 1019.1 - 0.0 - - 10 - - - -
24/02:00pm 22.6 ENE 6 9 1019.0 - 0.0 - - 10 - - - -
24/01:30pm 22.8 E 5 7 1019.1 - 0.0 - - 10 - - - -
24/01:00pm 22.1 ENE 6 9 1019.4 - 0.0 - - 10 - - - -
24/12:30pm 21.5 E 8 10 1019.8 - 0.0 - - 10 - - - -
24/12:00pm 22.0 ENE 7 10 1020.4 - 0.0 - - 10 - - - -
24/11:30am 23.1 W 6 9 1020.9 - 0.0 - - 10 - - - -
24/11:00am 21.6 SW 5 7 1021.4 - 0.0 - - 10 - - - -
24/10:30am 20.1 SSW 3 5 1021.9 - 0.0 - - 10 - - - -
24/10:00am 18.5 SW 4 6 1022.3 - 0.0 - - 10 - - - -
24/09:30am 17.3 WSW 5 6 1022.3 - 0.0 - - 10 - - - -
24/09:00am 15.0 WSW 1 3 1022.3 - 0.0 - - 10 - - - -
24/08:30am 12.6 SW 4 5 1022.2 - 0.0 - - 10 - - - -
24/08:00am 11.1 SW 4 5 1021.9 - 0.0 - - 10 - - - -
24/07:30am 9.8 SW 1 4 1021.7 - 0.0 - - 10 - - - -
24/07:00am 7.1 SW 1 5 1021.5 - 0.0 - - 10 - - - -
24/06:38am 6.3 SW 4 5 1021.3 - 0.0 - - 10 - - - -
24/06:30am 6.4 SW 5 5 1021.2 - 0.0 - - 8 - - - -
24/06:10am 6.6 CALM 0 4 1021.0 - 0.0 - - 4 - - - -
24/06:07am 6.6 CALM 0 0 1021.0 - 0.0 - - 10 - - - -
24/06:00am 7.0 CALM 0 2 1020.9 - 0.0 - - 10 - - - -
24/05:30am 7.6 CALM 0 3 1020.6 - 0.0 - - 4 - - - -
24/05:29am 7.7 SSW 1 3 1020.6 - 0.0 - Partly cloudy 5 - - - -
24/05:25am 7.7 SSW 2 4 1020.5 - 0.0 - Partly cloudy 10 - - - -
24/05:22am 7.4 SSW 3 4 1020.5 - 0.0 - Partly cloudy 10 - - - -
24/05:00am 8.7 CALM 0 2 1020.2 - 0.0 - Partly cloudy 0.5 - - - -
24/04:48am 9.1 SSW 4 7 1020.1 - 0.0 - Partly cloudy 0.7 - - - -
24/04:38am 8.7 WSW 3 7 1020.0 - 0.0 - Partly cloudy 3 - - - -
24/04:30am 7.8 CALM 0 0 1019.8 - 0.0 - - 10 - - - -
24/04:20am 8.5 CALM 0 0 1019.8 - 0.0 - - 10 - - - -
24/04:00am 9.2 CALM 0 0 1019.8 - 0.0 - Partly cloudy 3 - - - -
24/03:58am 9.6 CALM 0 1 1019.9 - 0.0 - Partly cloudy 8 - - - -
24/03:30am 10.4 SW 4 6 1019.9 - 0.0 - Cloudy 0.1 - - - -
24/03:00am 8.4 W 1 6 1019.8 - 0.0 - Mostly cloudy 0.1 - - - -
24/02:30am 8.5 CALM 0 0 1019.8 - 0.0 - Partly cloudy 0.3 - - - -
24/02:00am 8.6 SSW 3 4 1019.9 - 0.0 - Partly cloudy 0.1 - - - -
24/01:30am 8.6 W 3 4 1020.0 - 0.0 - Partly cloudy 0.2 - - - -
24/01:00am 8.6 CALM 0 0 1020.2 - 0.0 - Partly cloudy 0.2 - - - -
24/12:47am 8.7 CALM 0 0 1020.3 - 0.0 - Partly cloudy 1 - - - -
24/12:35am 8.6 CALM 0 0 1020.3 - 0.0 - - 5 - - - -
24/12:30am 8.6 CALM 0 0 1020.2 - 0.0 - - 10 - - - -
24/12:11am 8.5 CALM 0 0 1020.3 - 0.0 - - 10 - - - -
24/12:00am 8.9 CALM 0 0 1020.2 - 0.0 - - 2 - - - -
 
Date/Time
EST
Temp
°C
Wind Pressure Rain since
9am
mm
Weather Cloud Vis
km
Sea
Height
m
Swell
Dir  Spd
kts
Gust
kts
hPa Trend Height
m
Period
s
Dir
23/11:46pm 9.0 CALM 0 0 1020.3 - 0.0 - - 4 - - - -
23/11:30pm 9.1 SSW 2 3 1020.4 - 0.0 - - 10 - - - -
23/11:00pm 9.4 SSW 4 4 1020.6 - 0.0 - - 10 - - - -
23/10:30pm 9.9 CALM 0 0 1020.4 - 0.0 - - 10 - - - -
23/10:00pm 10.2 CALM 0 0 1020.5 - 0.0 - - 10 - - - -
23/09:30pm 10.6 CALM 0 0 1020.6 - 0.0 - - 10 - - - -
23/09:00pm 10.8 CALM 0 0 1020.5 - 0.0 - - 10 - - - -
23/08:30pm 11.2 WNW 3 4 1020.3 - 0.0 - - 10 - - - -
23/08:00pm 11.7 CALM 0 0 1020.0 - 0.0 - - 10 - - - -
23/07:30pm 12.7 CALM 0 0 1019.8 - 0.0 - - 10 - - - -
23/07:00pm 12.8 CALM 0 0 1019.6 - 0.0 - - 10 - - - -
23/06:30pm 13.7 CALM 0 0 1019.2 - 0.0 - - 10 - - - -
23/06:00pm 14.9 NNE 1 3 1018.9 - 0.0 - - 10 - - - -
23/05:30pm 18.2 NNE 4 5 1018.4 - 0.0 - - 10 - - - -
23/05:00pm 20.2 NNE 5 6 1018.2 - 0.0 - - 10 - - - -
23/04:30pm 21.4 NE 6 8 1018.0 - 0.0 - - 10 - - - -
23/04:00pm 21.9 E 6 7 1018.1 - 0.0 - - 10 - - - -
23/03:30pm 22.2 ENE 7 8 1018.0 - 0.0 - - 10 - - - -
23/03:00pm 22.2 NE 7 10 1018.0 - 0.0 - - 10 - - - -
23/02:30pm 22.4 NE 7 9 1018.2 - 0.0 - - 10 - - - -
23/02:00pm 22.4 E 7 9 1018.4 - 0.0 - - 10 - - - -
23/01:30pm 22.7 E 8 9 1018.7 - 0.0 - Partly cloudy 10 - - - -
23/01:00pm 21.9 SW 4 6 1019.1 - 0.0 - Partly cloudy 10 - - - -

Other Formats:

Comma delimited format used in spreadsheet applications
http://www.bom.gov.au/fwo/IDQ60701/IDQ60701.95565.axf

JavaScript Object Notation format (JSON) in row-major order
http://www.bom.gov.au/fwo/IDQ60701/IDQ60701.95565.json